Terminal Aerodrome Forecast
Issued by NWS Cleveland, OH

Home | Current Version | Previous Version | Graphics & Text | Print | Product List | Glossary On
Versions: 1 2 3 4 5 6 7 8 9 10 11 12 13 14 15 16 17 18 19 20
000
FTUS41 KCLE 311300 AAA
TAFTOL
TAF AMD
KTOL 311334Z 3114/0112 35005KT P6SM OVC004
      TEMPO 3116/3118 SCT004 OVC015
     FM311800 36010KT P6SM OVC025
     FM312000 35012KT P6SM SCT030 BKN060
     FM312200 34006KT P6SM SCT060 BKN120
     FM010400 VRB03KT P6SM SCT120 BKN250=

USA.gov is the U.S. government's official web portal to all federal, state and local government web resources and services.